createdAt,value
2018-02-08T00:02:13.959Z,49.48
2018-02-08T00:04:42.270Z,60.57
2018-02-08T00:07:10.615Z,59.25
2018-02-08T00:09:38.933Z,57.55
2018-02-08T00:12:07.266Z,56.90
2018-02-08T00:14:35.584Z,49.82
2018-02-08T00:17:03.928Z,57.77
2018-02-08T00:19:32.259Z,57.82
2018-02-08T00:22:00.614Z,58.90
2018-02-08T00:24:28.945Z,67.52
2018-02-08T00:26:57.354Z,65.68
2018-02-08T00:29:25.662Z,52.30
2018-02-08T00:31:53.979Z,62.67
2018-02-08T00:34:22.319Z,52.17
2018-02-08T00:36:50.641Z,45.18
2018-02-08T00:39:18.975Z,58.73
2018-02-08T00:41:47.291Z,59.27
2018-02-08T00:44:15.662Z,54.85
2018-02-08T00:46:43.976Z,55.83
2018-02-08T00:49:12.311Z,57.25
2018-02-08T00:51:40.625Z,49.67
2018-02-08T00:54:08.961Z,39.25
2018-02-08T00:56:37.279Z,42.17
2018-02-08T00:59:05.609Z,43.80
2018-02-08T01:01:33.932Z,45.72
2018-02-08T01:04:02.271Z,42.53
2018-02-08T01:06:29.822Z,42.30
2018-02-08T01:08:58.175Z,43.13
2018-02-08T01:11:26.488Z,51.17
2018-02-08T01:13:54.826Z,49.33
2018-02-08T01:16:23.148Z,48.90
2018-02-08T01:18:51.488Z,42.83
2018-02-08T01:21:19.806Z,47.90
2018-02-08T01:23:48.150Z,52.75
2018-02-08T01:26:16.454Z,48.77
2018-02-08T01:28:44.791Z,46.48
2018-02-08T01:31:13.108Z,50.17
2018-02-08T01:33:41.451Z,52.45
2018-02-08T01:36:09.763Z,49.95
2018-02-08T01:38:38.093Z,52.02
2018-02-08T01:41:06.417Z,53.67
2018-02-08T01:43:34.754Z,50.00
2018-02-08T01:46:03.062Z,49.50
2018-02-08T01:48:31.395Z,45.62
2018-02-08T01:50:59.715Z,52.08
2018-02-08T01:53:28.055Z,47.98
2018-02-08T01:55:56.371Z,48.12
2018-02-08T01:58:24.703Z,47.45
2018-02-08T02:00:53.023Z,47.77
2018-02-08T02:03:21.359Z,47.07
2018-02-08T02:05:49.679Z,45.10
2018-02-08T02:08:18.017Z,45.35
2018-02-08T02:10:46.331Z,45.87
2018-02-08T02:13:14.673Z,35.77
2018-02-08T02:15:43.011Z,45.05
2018-02-08T02:18:11.355Z,34.98
2018-02-08T02:20:39.672Z,51.78
2018-02-08T02:23:07.985Z,43.73
2018-02-08T02:25:36.319Z,43.82
2018-02-08T02:28:04.646Z,36.98
2018-02-08T02:30:32.987Z,51.83
2018-02-08T02:33:01.309Z,49.33
2018-02-08T02:35:29.647Z,48.28
2018-02-08T02:37:57.970Z,44.22
2018-02-08T02:40:26.316Z,46.60
2018-02-08T02:42:54.635Z,47.32
2018-02-08T02:45:22.977Z,39.95
2018-02-08T02:47:51.299Z,46.50
2018-02-08T02:50:19.635Z,46.25
2018-02-08T02:52:47.948Z,44.10
2018-02-08T02:55:16.296Z,41.47
2018-02-08T02:57:44.624Z,43.50
2018-02-08T03:00:12.958Z,40.07
2018-02-08T03:02:41.312Z,38.52
2018-02-08T03:05:09.654Z,39.93
2018-02-08T03:07:37.976Z,39.63
2018-02-08T03:10:06.314Z,42.15
2018-02-08T03:12:34.627Z,44.52
2018-02-08T03:15:02.978Z,40.10
2018-02-08T03:17:31.303Z,41.17
2018-02-08T03:19:59.646Z,40.18
2018-02-08T03:22:27.962Z,42.60
2018-02-08T03:24:56.323Z,33.92
2018-02-08T03:27:24.646Z,40.33
2018-02-08T03:29:52.992Z,38.33
2018-02-08T03:32:21.318Z,45.33
2018-02-08T03:34:49.651Z,37.73
2018-02-08T03:37:17.966Z,45.35
2018-02-08T03:39:46.304Z,45.33
2018-02-08T03:42:14.630Z,42.68
2018-02-08T03:44:42.967Z,37.43
2018-02-08T03:47:11.287Z,35.72
2018-02-08T03:49:39.619Z,40.57
2018-02-08T03:52:07.940Z,37.77
2018-02-08T03:54:36.279Z,43.15
2018-02-08T03:57:04.596Z,43.48
2018-02-08T03:59:33.583Z,42.92
2018-02-08T04:02:01.894Z,45.38
2018-02-08T04:04:30.231Z,42.37
2018-02-08T04:06:58.553Z,33.63
2018-02-08T04:09:26.899Z,33.10
2018-02-08T04:11:55.231Z,35.48
2018-02-08T04:14:23.545Z,43.25
2018-02-08T04:16:51.897Z,39.30
2018-02-08T04:19:20.218Z,41.68
2018-02-08T04:21:48.566Z,36.23
2018-02-08T04:24:16.883Z,39.87
2018-02-08T04:26:45.233Z,41.37
2018-02-08T04:29:13.596Z,41.80
2018-02-08T04:31:41.984Z,30.63
2018-02-08T04:34:10.334Z,43.02
2018-02-08T04:36:37.938Z,39.60
2018-02-08T04:39:18.185Z,35.05
2018-02-08T04:41:58.379Z,35.98
2018-02-08T04:44:38.543Z,37.73
2018-02-08T04:47:28.536Z,45.88
2018-02-08T04:49:56.849Z,35.27
2018-02-08T04:52:25.191Z,34.43
2018-02-08T04:54:53.515Z,34.98
2018-02-08T04:57:21.855Z,45.45
2018-02-08T04:59:50.175Z,41.53
2018-02-08T05:02:20.160Z,47.28
2018-02-08T05:04:48.480Z,34.43
2018-02-08T05:07:16.818Z,33.93
2018-02-08T05:09:45.151Z,36.53
2018-02-08T05:12:13.627Z,39.58
2018-02-08T05:14:42.167Z,43.18
2018-02-08T05:17:10.522Z,43.22
2018-02-08T05:19:38.854Z,34.70
2018-02-08T05:22:07.199Z,40.62
2018-02-08T05:24:35.506Z,34.37
2018-02-08T05:27:03.842Z,31.70
2018-02-08T05:29:32.161Z,34.93
2018-02-08T05:32:00.499Z,34.40
2018-02-08T05:34:28.810Z,41.83
2018-02-08T05:36:57.156Z,40.45
2018-02-08T05:39:25.479Z,42.80
2018-02-08T05:41:53.822Z,38.40
2018-02-08T05:44:22.138Z,37.48
2018-02-08T05:46:50.484Z,43.85
2018-02-08T05:49:18.803Z,35.92
2018-02-08T05:51:47.144Z,43.67
2018-02-08T05:54:15.462Z,40.72
2018-02-08T05:56:43.859Z,46.30
2018-02-08T05:59:12.704Z,37.35
2018-02-08T06:01:41.213Z,47.40
2018-02-08T06:04:09.579Z,36.73
2018-02-08T06:06:37.915Z,34.80
2018-02-08T06:09:06.235Z,40.68
2018-02-08T06:11:34.575Z,39.63
2018-02-08T06:14:02.893Z,35.85
2018-02-08T06:16:31.211Z,39.87
2018-02-08T06:18:59.573Z,38.18
2018-02-08T06:21:27.890Z,41.45
2018-02-08T06:23:56.238Z,33.60
2018-02-08T06:26:24.560Z,41.40
2018-02-08T06:28:52.902Z,46.68
2018-02-08T06:31:21.222Z,58.00
2018-02-08T06:33:49.559Z,58.75
2018-02-08T06:36:17.878Z,51.35
2018-02-08T06:38:46.244Z,45.47
2018-02-08T06:41:14.634Z,36.12
2018-02-08T06:43:43.044Z,38.78
2018-02-08T06:46:12.749Z,37.63
2018-02-08T06:48:41.111Z,41.97
2018-02-08T06:51:09.464Z,42.52
2018-02-08T06:53:37.803Z,50.52
2018-02-08T06:56:06.117Z,47.62
2018-02-08T06:58:34.456Z,54.48
2018-02-08T07:01:02.785Z,42.35
2018-02-08T07:03:31.127Z,46.40
2018-02-08T07:05:59.452Z,41.12
2018-02-08T07:08:27.793Z,42.25
2018-02-08T07:10:56.124Z,37.10
2018-02-08T07:13:24.471Z,111.97
2018-02-08T07:15:52.801Z,71.60
2018-02-08T07:18:21.138Z,45.12
2018-02-08T07:20:49.456Z,51.43
2018-02-08T07:23:17.799Z,93.63
2018-02-08T07:25:46.105Z,92.63
2018-02-08T07:28:14.458Z,45.03
2018-02-08T07:30:42.787Z,52.32
2018-02-08T07:33:11.128Z,47.20
2018-02-08T07:35:39.440Z,57.92
2018-02-08T07:38:07.786Z,50.70
2018-02-08T07:40:36.110Z,46.45
2018-02-08T07:43:04.454Z,47.48
2018-02-08T07:45:32.877Z,45.50
2018-02-08T07:48:01.227Z,49.93
2018-02-08T07:50:29.551Z,42.33
2018-02-08T07:52:57.894Z,51.33
2018-02-08T07:55:26.231Z,52.52
2018-02-08T07:57:54.577Z,43.98
2018-02-08T08:00:22.906Z,42.78
2018-02-08T08:02:51.220Z,44.07
2018-02-08T08:05:19.566Z,47.60
2018-02-08T08:07:47.886Z,50.27
2018-02-08T08:10:16.240Z,50.12
2018-02-08T08:12:44.566Z,56.72
2018-02-08T08:15:12.908Z,48.57
2018-02-08T08:17:41.233Z,53.05
2018-02-08T08:20:09.571Z,41.50
2018-02-08T08:22:37.898Z,52.47
2018-02-08T08:25:06.234Z,57.83
2018-02-08T08:27:34.552Z,56.72
2018-02-08T08:30:02.895Z,57.88
2018-02-08T08:32:31.232Z,50.87
2018-02-08T08:34:59.576Z,76.42
2018-02-08T08:37:27.896Z,78.87
2018-02-08T08:39:56.243Z,101.67
2018-02-08T08:42:24.562Z,79.20
2018-02-08T08:44:52.900Z,62.73
2018-02-08T08:47:21.215Z,65.07
2018-02-08T08:49:49.562Z,80.87
2018-02-08T09:02:37.044Z,109.45
2018-02-08T09:05:05.359Z,208.72
2018-02-08T09:07:32.887Z,135.43
2018-02-08T09:10:01.204Z,80.28
2018-02-08T09:12:29.496Z,51.72
2018-02-08T09:14:57.812Z,53.68
2018-02-08T09:17:26.117Z,54.58
2018-02-08T09:19:54.432Z,164.07
2018-02-08T09:22:22.728Z,109.48
2018-02-08T09:24:51.044Z,62.25
2018-02-08T09:27:19.336Z,55.47
2018-02-08T09:29:47.651Z,69.45
2018-02-08T09:32:15.943Z,58.57
2018-02-08T09:34:44.263Z,49.28
2018-02-08T09:37:12.560Z,76.02
2018-02-08T09:39:40.874Z,51.73
2018-02-08T09:42:09.163Z,49.07
2018-02-08T09:44:36.703Z,45.73
2018-02-08T09:47:05.000Z,48.90
2018-02-08T09:49:33.321Z,53.97
2018-02-08T09:52:01.616Z,49.98
2018-02-08T09:54:29.935Z,74.10
2018-02-08T09:56:58.228Z,68.15
2018-02-08T09:59:26.542Z,62.52
2018-02-08T10:01:54.832Z,70.95
2018-02-08T10:04:23.119Z,61.88
2018-02-08T10:06:51.432Z,105.37
2018-02-08T10:09:19.728Z,64.02
2018-02-08T10:11:48.085Z,55.20
2018-02-08T10:14:16.376Z,50.35
2018-02-08T10:16:44.692Z,54.97
2018-02-08T10:19:12.980Z,49.78
2018-02-08T10:21:41.292Z,50.13
2018-02-08T10:24:09.584Z,54.78
2018-02-08T10:26:37.892Z,52.88
2018-02-08T10:29:06.183Z,46.23
2018-02-08T10:31:34.592Z,53.83
2018-02-08T10:34:02.885Z,50.65
2018-02-08T10:36:31.192Z,58.98
2018-02-08T10:38:59.487Z,230.22
2018-02-08T10:41:27.860Z,61.22
2018-02-08T10:43:56.148Z,62.52
2018-02-08T10:46:23.687Z,68.50
2018-02-08T10:48:51.977Z,47.02
2018-02-08T10:51:20.288Z,42.37
2018-02-08T10:53:48.580Z,41.53
2018-02-08T10:56:16.890Z,44.55
2018-02-08T10:58:45.180Z,37.52
2018-02-08T11:01:13.500Z,31.87
2018-02-08T11:03:41.832Z,31.30
2018-02-08T11:06:09.373Z,38.60
2018-02-08T11:08:37.655Z,35.07
2018-02-08T11:11:05.195Z,37.38
2018-02-08T11:13:33.484Z,31.30
2018-02-08T11:16:01.792Z,25.70
2018-02-08T11:18:30.080Z,18.30
2018-02-08T11:20:58.392Z,21.47
2018-02-08T11:23:26.679Z,18.07
2018-02-08T11:25:54.987Z,22.70
2018-02-08T11:28:22.515Z,21.08
2018-02-08T11:30:50.824Z,21.18
2018-02-08T11:33:19.117Z,19.95
2018-02-08T11:35:47.432Z,22.05
2018-02-08T11:38:15.720Z,22.22
2018-02-08T11:40:44.048Z,19.15
2018-02-08T11:43:12.342Z,24.08
2018-02-08T11:45:40.663Z,22.97
2018-02-08T11:48:08.952Z,23.87
2018-02-08T11:50:37.245Z,26.38
2018-02-08T11:53:05.557Z,22.97
2018-02-08T11:55:33.851Z,28.57
2018-02-08T11:58:02.168Z,21.33
2018-02-08T12:00:30.460Z,28.53
2018-02-08T12:02:58.776Z,31.45
2018-02-08T12:05:27.072Z,25.87
2018-02-08T12:07:55.388Z,24.92
2018-02-08T12:10:23.671Z,26.58
2018-02-08T12:12:51.991Z,25.68
2018-02-08T12:15:20.285Z,23.75
2018-02-08T12:17:48.598Z,23.53
2018-02-08T12:20:16.928Z,24.22
2018-02-08T12:22:44.503Z,24.65
2018-02-08T12:25:12.791Z,26.33
2018-02-08T12:27:41.100Z,22.92
2018-02-08T12:30:09.388Z,22.52
2018-02-08T12:32:37.700Z,22.68
2018-02-08T12:35:05.991Z,21.33
2018-02-08T12:37:34.300Z,18.37
2018-02-08T12:40:02.589Z,18.55
2018-02-08T12:42:30.159Z,17.88
2018-02-08T12:44:58.456Z,15.98
2018-02-08T12:47:26.768Z,17.52
2018-02-08T12:49:55.060Z,18.73
2018-02-08T12:52:23.372Z,16.45
2018-02-08T12:54:51.660Z,16.77
2018-02-08T12:57:19.204Z,20.05
2018-02-08T12:59:47.499Z,39.65
2018-02-08T13:02:15.811Z,132.12
2018-02-08T13:04:44.103Z,68.92
2018-02-08T13:07:12.413Z,47.38
2018-02-08T13:09:40.705Z,161.10
2018-02-08T13:12:09.015Z,93.28
2018-02-08T13:14:37.309Z,62.73
2018-02-08T13:17:05.623Z,38.60
2018-02-08T13:19:33.911Z,50.93
2018-02-08T13:22:01.460Z,22.65
2018-02-08T13:24:29.747Z,13.53
2018-02-08T13:26:58.041Z,16.17
2018-02-08T13:29:26.352Z,45.35
2018-02-08T13:31:54.632Z,71.10
2018-02-08T13:34:22.943Z,21.23
2018-02-08T13:36:51.232Z,59.67
2018-02-08T13:39:24.147Z,22.53
2018-02-08T13:41:52.436Z,48.17
2018-02-08T13:44:20.748Z,11.18
2018-02-08T13:46:49.035Z,15.52
2018-02-08T13:49:19.873Z,17.48
2018-02-08T13:52:00.028Z,15.25
2018-02-08T13:54:44.003Z,15.52
2018-02-08T13:57:17.905Z,36.17
2018-02-08T13:59:46.815Z,14.38
2018-02-08T14:02:15.112Z,20.35
2018-02-08T14:04:43.432Z,21.08
2018-02-08T14:07:11.728Z,13.05
2018-02-08T14:09:40.036Z,13.95
2018-02-08T14:12:08.321Z,11.25
2018-02-08T14:14:36.631Z,15.45
2018-02-08T14:17:04.920Z,17.53
2018-02-08T14:19:33.224Z,11.92
2018-02-08T14:22:01.560Z,30.72
2018-02-08T14:24:29.848Z,17.22
2018-02-08T14:26:58.139Z,20.15
2018-02-08T14:29:26.444Z,18.13
2018-02-08T14:31:54.731Z,11.98
2018-02-08T14:34:23.045Z,17.97
2018-02-08T14:36:51.328Z,15.82
2018-02-08T14:39:19.642Z,13.03
2018-02-08T14:41:47.936Z,11.58
2018-02-08T14:44:16.241Z,12.22
2018-02-08T14:46:44.524Z,11.32
2018-02-08T14:49:12.840Z,13.38
2018-02-08T14:51:41.124Z,14.52
2018-02-08T14:54:09.472Z,8.97
2018-02-08T14:56:37.751Z,9.33
2018-02-08T14:59:06.036Z,11.37
2018-02-08T15:01:34.348Z,10.85
2018-02-08T15:04:02.636Z,12.85
2018-02-08T15:06:30.944Z,14.98
2018-02-08T15:08:59.218Z,8.22
2018-02-08T15:11:27.532Z,13.62
2018-02-08T15:13:55.816Z,13.10
2018-02-08T15:16:24.120Z,11.13
2018-02-08T15:18:52.408Z,85.88
2018-02-08T15:21:20.720Z,12.78
2018-02-08T15:23:49.003Z,18.62
2018-02-08T15:26:17.304Z,13.45
2018-02-08T15:28:45.588Z,12.75
2018-02-08T15:31:13.905Z,19.57
2018-02-08T15:33:42.196Z,18.83
2018-02-08T15:36:10.503Z,21.25
2018-02-08T15:38:38.800Z,14.20
2018-02-08T15:41:07.116Z,18.47
2018-02-08T15:43:35.414Z,18.13
2018-02-08T15:46:03.786Z,16.07
2018-02-08T15:48:32.044Z,103.22
2018-02-08T15:51:00.356Z,40.88
2018-02-08T15:53:27.886Z,23.90
2018-02-08T15:55:56.196Z,16.15
2018-02-08T15:58:24.488Z,33.40
2018-02-08T16:00:52.797Z,33.12
2018-02-08T16:03:21.092Z,96.62
2018-02-08T16:05:49.400Z,65.47
2018-02-08T16:08:17.688Z,65.58
2018-02-08T16:10:46.008Z,54.67
2018-02-08T16:13:13.535Z,47.95
2018-02-08T16:15:41.847Z,63.03
2018-02-08T16:18:10.144Z,37.22
2018-02-08T16:20:38.461Z,28.42
2018-02-08T16:23:06.756Z,43.90
2018-02-08T16:25:34.307Z,41.72
2018-02-08T16:28:02.595Z,43.28
2018-02-08T16:30:30.916Z,29.33
2018-02-08T16:32:59.212Z,29.80
2018-02-08T16:35:27.528Z,25.15
2018-02-08T16:37:55.829Z,21.28
2018-02-08T16:40:24.127Z,27.72
2018-02-08T16:42:52.444Z,23.50
2018-02-08T16:45:20.735Z,26.38
2018-02-08T16:47:49.060Z,26.23
2018-02-08T16:50:17.351Z,21.45
2018-02-08T16:52:45.667Z,23.38
2018-02-08T16:55:13.971Z,24.22
2018-02-08T16:57:42.281Z,21.67
2018-02-08T17:00:10.570Z,25.23
2018-02-08T17:02:38.880Z,45.62
2018-02-08T17:05:07.184Z,35.43
2018-02-08T17:07:34.733Z,39.38
2018-02-08T17:10:03.026Z,47.97
2018-02-08T17:12:31.341Z,45.38
2018-02-08T17:14:59.639Z,39.90
2018-02-08T17:17:27.952Z,41.48
2018-02-08T17:19:56.243Z,39.98
2018-02-08T17:22:24.560Z,35.97
2018-02-08T17:24:52.851Z,34.28
2018-02-08T17:27:21.164Z,33.82
2018-02-08T17:29:49.455Z,30.87
2018-02-08T17:32:17.015Z,27.80
2018-02-08T17:34:45.307Z,26.53
2018-02-08T17:37:12.860Z,34.83
2018-02-08T17:39:41.154Z,29.37
2018-02-08T17:42:09.475Z,32.00
2018-02-08T17:44:37.767Z,33.15
2018-02-08T17:47:06.080Z,25.25
2018-02-08T17:49:34.380Z,27.77
2018-02-08T17:52:01.928Z,33.17
2018-02-08T17:54:30.224Z,41.82
2018-02-08T17:56:58.540Z,64.33
2018-02-08T17:59:26.839Z,63.23
2018-02-08T18:01:55.152Z,76.55
2018-02-08T18:04:23.453Z,72.12
2018-02-08T18:06:51.776Z,50.83
2018-02-08T18:09:20.109Z,39.72
2018-02-08T18:11:48.428Z,40.60
2018-02-08T18:14:16.727Z,37.33
2018-02-08T18:16:45.012Z,30.00
2018-02-08T18:19:13.333Z,32.48
2018-02-08T18:21:41.624Z,26.27
2018-02-08T18:24:09.946Z,26.68
2018-02-08T18:26:38.240Z,29.93
2018-02-08T18:29:06.556Z,26.67
2018-02-08T18:31:34.856Z,27.20
2018-02-08T18:34:03.204Z,32.23
2018-02-08T18:36:31.510Z,25.13
2018-02-08T18:38:59.833Z,23.37
2018-02-08T18:41:28.132Z,34.45
2018-02-08T18:43:56.496Z,25.62
2018-02-08T18:46:24.031Z,23.73
2018-02-08T18:48:52.348Z,22.70
2018-02-08T18:51:20.646Z,26.00
2018-02-08T18:53:48.244Z,24.98
2018-02-08T18:56:16.536Z,27.90
2018-02-08T18:58:44.857Z,24.62
2018-02-08T19:01:13.153Z,26.83
2018-02-08T19:03:41.468Z,26.82
2018-02-08T19:06:09.832Z,24.10
2018-02-08T19:08:39.133Z,20.68
2018-02-08T19:11:07.436Z,25.73
2018-02-08T19:13:35.752Z,26.57
2018-02-08T19:16:04.044Z,28.48
2018-02-08T19:18:32.370Z,20.10
2018-02-08T19:21:00.665Z,25.45
2018-02-08T19:23:28.992Z,28.25
2018-02-08T19:25:57.282Z,24.93
2018-02-08T19:28:25.600Z,27.20
2018-02-08T19:30:53.914Z,27.12
2018-02-08T19:33:22.248Z,25.68
2018-02-08T19:35:50.628Z,24.92
2018-02-08T19:38:18.192Z,24.98
2018-02-08T19:40:46.523Z,24.65
2018-02-08T19:43:14.843Z,21.03
2018-02-08T19:45:43.156Z,26.70
2018-02-08T19:48:11.476Z,24.67
2018-02-08T19:50:39.766Z,56.90
2018-02-08T19:53:07.308Z,264.47
2018-02-08T19:55:35.632Z,285.60
2018-02-08T19:58:03.988Z,260.87
2018-02-08T20:00:32.470Z,87.78
2018-02-08T20:03:00.801Z,66.38
2018-02-08T20:05:29.124Z,44.57
2018-02-08T20:07:57.417Z,22.32
2018-02-08T20:10:25.737Z,30.23
2018-02-08T20:12:54.032Z,32.27
2018-02-08T20:15:36.202Z,33.03
2018-02-08T20:18:04.615Z,30.33
2018-02-08T20:20:32.928Z,29.65
2018-02-08T20:23:01.224Z,28.33
2018-02-08T20:25:35.114Z,33.08
2018-02-08T20:28:03.420Z,25.10
2018-02-08T20:30:31.764Z,37.35
2018-02-08T20:33:00.091Z,30.73
2018-02-08T20:35:28.409Z,31.13
2018-02-08T20:37:56.710Z,26.25
2018-02-08T20:40:25.693Z,27.43
2018-02-08T20:42:59.584Z,19.88
2018-02-08T20:45:27.903Z,21.10
2018-02-08T20:47:55.441Z,22.78
2018-02-08T20:50:23.761Z,23.57
2018-02-08T20:52:51.284Z,23.23
2018-02-08T20:55:19.601Z,25.85
2018-02-08T20:57:47.943Z,24.42
2018-02-08T21:00:16.260Z,20.65
2018-02-08T21:02:44.552Z,22.67
2018-02-08T21:05:12.100Z,20.37
2018-02-08T21:07:40.524Z,21.98
2018-02-08T21:10:08.893Z,29.63
2018-02-08T21:12:37.198Z,20.52
2018-02-08T21:15:05.520Z,21.07
2018-02-08T21:17:33.829Z,27.65
2018-02-08T21:20:02.150Z,34.18
2018-02-08T21:22:30.512Z,25.12
2018-02-08T21:24:58.795Z,32.20
2018-02-08T21:27:27.128Z,42.00
2018-02-08T21:29:55.443Z,34.48
2018-02-08T21:32:23.744Z,28.32
2018-02-08T21:34:52.064Z,29.37
2018-02-08T21:37:20.361Z,30.27
2018-02-08T21:39:48.681Z,39.92
2018-02-08T21:42:16.980Z,44.73
2018-02-08T21:44:45.288Z,58.73
2018-02-08T21:47:13.583Z,55.65
2018-02-08T21:49:41.879Z,37.68
2018-02-08T21:52:10.197Z,32.48
2018-02-08T21:54:38.500Z,27.48
2018-02-08T21:57:06.832Z,36.23
2018-02-08T21:59:35.144Z,29.38
2018-02-08T22:02:02.696Z,27.00
2018-02-08T22:04:30.983Z,19.93
2018-02-08T22:06:58.535Z,26.30
2018-02-08T22:09:26.859Z,25.50
2018-02-08T22:11:55.175Z,21.42
2018-02-08T22:14:23.483Z,22.03
2018-02-08T22:16:51.804Z,25.93
2018-02-08T22:19:20.104Z,23.80
2018-02-08T22:21:48.429Z,19.88
2018-02-08T22:24:16.740Z,24.18
2018-02-08T22:26:45.053Z,26.58
2018-02-08T22:29:13.343Z,31.23
2018-02-08T22:31:41.660Z,26.17
2018-02-08T22:34:09.958Z,21.37
2018-02-08T22:36:38.273Z,22.72
2018-02-08T22:39:06.571Z,28.93
2018-02-08T22:41:34.893Z,18.03
2018-02-08T22:44:03.200Z,22.95
2018-02-08T22:46:31.521Z,20.23
2018-02-08T22:48:59.821Z,15.87
2018-02-08T22:51:28.139Z,22.63
2018-02-08T22:53:56.431Z,18.08
2018-02-08T22:56:24.739Z,18.22
2018-02-08T22:58:53.037Z,21.20
2018-02-08T23:01:21.353Z,18.62
2018-02-08T23:03:49.643Z,22.40
2018-02-08T23:06:17.967Z,25.58
2018-02-08T23:08:46.259Z,22.47
2018-02-08T23:11:14.579Z,25.77
2018-02-08T23:13:42.877Z,23.28
2018-02-08T23:16:11.404Z,24.67
2018-02-08T23:18:39.708Z,26.18
2018-02-08T23:21:08.023Z,22.75
2018-02-08T23:23:36.316Z,21.95
2018-02-08T23:26:04.638Z,25.13
2018-02-08T23:28:32.960Z,20.77
2018-02-08T23:31:01.261Z,21.70
2018-02-08T23:33:29.571Z,23.53
2018-02-08T23:35:57.863Z,19.17
2018-02-08T23:38:26.180Z,19.27
2018-02-08T23:40:53.719Z,21.72
2018-02-08T23:43:22.027Z,19.47
2018-02-08T23:45:50.328Z,22.43
2018-02-08T23:48:18.643Z,24.83
2018-02-08T23:50:46.944Z,25.92
2018-02-08T23:53:15.260Z,19.03
2018-02-08T23:55:43.552Z,16.60
2018-02-08T23:58:11.864Z,21.93
